| Date | Time | Temp. (oF) | Dew Point (oF) | Rel. Hum. (%) | Press. (in.) | Wind Dir. | Wind Speed (mph) | Hourly Rainfall (in.) |
|
|---|---|---|---|---|---|---|---|---|---|
| 1 | miss | miss | miss | miss | miss | miss | miss | miss | |
| 2 | 03/14 | 23:00 | 47 | 42 | 85 | 29.57 | NE | 4 | 0.00 |
| 3 | 03/14 | 22:00 | 47 | 42 | 83 | 29.58 | ENE | 6 | 0.01 |
| 4 | 03/14 | 21:00 | 48 | 42 | 81 | 29.59 | NE | 5 | 0.01 |
| 5 | 03/14 | 20:00 | 52 | 41 | 67 | 29.57 | E | 14 | 0.00 |
| 6 | 03/14 | 19:00 | 55 | 42 | 63 | 29.60 | E | 7 | 0.00 |
| 7 | 03/14 | 18:00 | 57 | 42 | 58 | 29.58 | ENE | 0 | 0.00 |
| 8 | 03/14 | 17:00 | 58 | 41 | 55 | 29.58 | ESE | 0 | 0.00 |
| 9 | 03/14 | 16:00 | 60 | 41 | 51 | 29.59 | SE | 8 | 0.00 |
| 10 | 03/14 | 15:00 | 61 | 39 | 45 | 29.62 | SE | 7 | 0.00 |
| 11 | 03/14 | 14:00 | 60 | 39 | 46 | 29.65 | SSE | 10 | 0.00 |
| 12 | 03/14 | 13:00 | 60 | 39 | 46 | 29.70 | SE | 5 | 0.00 |
| 13 | 03/14 | 12:00 | 57 | 38 | 51 | 29.76 | ESE | 4 | 0.00 |
| 14 | 03/14 | 11:00 | 55 | 41 | 61 | 29.78 | SSW | 0 | 0.00 |
| 15 | 03/14 | 10:00 | 50 | 42 | 74 | 29.81 | SE | 2 | 0.00 |
| 16 | 03/14 | 09:00 | 44 | 40 | 89 | 29.83 | SW | 1 | 0.00 |
| 17 | 03/14 | 08:00 | 39 | 38 | 97 | 29.82 | SE | 0 | 0.00 |
| 18 | 03/14 | 07:00 | 36 | 35 | 99 | 29.83 | S | 0 | 0.00 |
| 19 | 03/14 | 06:00 | 36 | 35 | 98 | 29.84 | NW | 0 | 0.00 |
| 20 | 03/14 | 05:00 | 37 | 36 | 98 | 29.82 | S | 1 | 0.00 |
| 21 | 03/14 | 04:00 | 36 | 35 | 97 | 29.82 | SSE | 0 | 0.00 |
| 22 | 03/14 | 03:00 | 37 | 35 | 94 | 29.82 | SSE | 1 | 0.00 |
| 23 | 03/14 | 02:00 | 37 | 35 | 95 | 29.84 | S | 2 | 0.00 |
| 24 | 03/14 | 01:00 | 36 | 33 | 91 | 29.84 | S | 1 | 0.00 |